createdAt,value
2018-11-21T00:01:00.630Z,20.37
2018-11-21T00:03:48.416Z,20.67
2018-11-21T00:06:36.250Z,21.97
2018-11-21T00:09:24.013Z,21.63
2018-11-21T00:12:11.831Z,22.47
2018-11-21T00:14:59.681Z,21.23
2018-11-21T00:17:47.550Z,21.33
2018-11-21T00:20:35.331Z,20.50
2018-11-21T00:23:23.246Z,21.23
2018-11-21T00:26:11.029Z,22.30
2018-11-21T00:28:58.840Z,21.50
2018-11-21T00:31:46.637Z,20.90
2018-11-21T00:34:34.424Z,22.23
2018-11-21T00:37:22.943Z,21.23
2018-11-21T00:40:11.529Z,21.73
2018-11-21T00:42:59.360Z,21.00
2018-11-21T00:45:47.192Z,22.50
2018-11-21T00:48:34.991Z,23.40
2018-11-21T00:51:22.809Z,22.27
2018-11-21T00:54:10.551Z,23.33
2018-11-21T00:56:58.542Z,19.13
2018-11-21T00:59:46.314Z,21.53
2018-11-21T01:02:34.083Z,22.27
2018-11-21T01:05:21.858Z,22.73
2018-11-21T01:08:09.636Z,22.97
2018-11-21T01:10:57.400Z,22.30
2018-11-21T01:13:45.237Z,24.17
2018-11-21T01:16:33.066Z,22.10
2018-11-21T01:19:20.850Z,21.63
2018-11-21T01:22:08.690Z,21.03
2018-11-21T01:24:56.444Z,24.30
2018-11-21T01:27:44.251Z,22.77
2018-11-21T01:30:32.744Z,22.93
2018-11-21T01:33:20.593Z,22.73
2018-11-21T01:36:08.377Z,22.07
2018-11-21T01:38:56.207Z,25.17
2018-11-21T01:41:43.973Z,23.60
2018-11-21T01:44:31.840Z,23.23
2018-11-21T01:47:19.623Z,23.93
2018-11-21T01:50:07.786Z,23.97
2018-11-21T01:52:55.563Z,24.60
2018-11-21T01:55:43.389Z,24.87
2018-11-21T01:58:31.340Z,23.90
2018-11-21T02:01:19.142Z,22.33
2018-11-21T02:04:06.935Z,25.67
2018-11-21T02:06:54.746Z,24.70
2018-11-21T02:09:42.542Z,25.23
2018-11-21T02:12:30.390Z,25.40
2018-11-21T02:15:18.187Z,25.90
2018-11-21T02:18:06.062Z,24.83
2018-11-21T02:20:53.849Z,27.03
2018-11-21T02:23:41.729Z,25.20
2018-11-21T02:26:29.497Z,24.87
2018-11-21T02:29:17.287Z,23.50
2018-11-21T02:32:05.598Z,21.30
2018-11-21T02:34:53.446Z,24.03
2018-11-21T02:37:41.246Z,23.87
2018-11-21T02:40:29.083Z,24.00
2018-11-21T02:43:16.872Z,27.13
2018-11-21T02:46:04.994Z,24.77
2018-11-21T02:48:52.749Z,24.50
2018-11-21T02:51:40.625Z,25.27
2018-11-21T02:54:28.406Z,23.77
2018-11-21T02:57:36.125Z,25.10
2018-11-21T03:00:24.718Z,25.93
2018-11-21T03:03:12.503Z,25.37
2018-11-21T03:06:00.277Z,24.73
2018-11-21T03:08:48.143Z,26.10
2018-11-21T03:11:35.945Z,24.87
2018-11-21T03:17:17.141Z,25.10
2018-11-21T03:20:04.949Z,24.10
2018-11-21T03:22:52.761Z,25.10
2018-11-21T03:25:40.576Z,24.47
2018-11-21T03:28:28.355Z,22.17
2018-11-21T03:31:16.134Z,25.10
2018-11-21T03:34:03.934Z,23.17
2018-11-21T03:36:52.960Z,23.87
2018-11-21T03:39:40.809Z,22.53
2018-11-21T03:42:28.578Z,23.10
2018-11-21T03:45:16.401Z,23.07
2018-11-21T03:48:04.167Z,21.50
2018-11-21T03:50:51.964Z,23.67
2018-11-21T03:53:39.771Z,23.60
2018-11-21T03:56:27.552Z,23.47
2018-11-21T03:59:15.356Z,22.83
2018-11-21T04:02:03.177Z,22.60
2018-11-21T04:04:50.950Z,20.93
2018-11-21T04:07:38.890Z,22.40
2018-11-21T04:10:26.720Z,23.37
2018-11-21T04:16:21.433Z,22.57
2018-11-21T04:19:09.206Z,23.13
2018-11-21T04:21:57.023Z,23.47
2018-11-21T04:24:44.778Z,21.93
2018-11-21T04:27:32.593Z,24.03
2018-11-21T04:30:20.358Z,22.83
2018-11-21T04:33:08.159Z,23.57
2018-11-21T04:35:55.968Z,23.87
2018-11-21T04:38:43.760Z,21.37
2018-11-21T04:41:31.538Z,22.13
2018-11-21T04:44:19.351Z,22.27
2018-11-21T04:47:07.126Z,21.43
2018-11-21T04:49:54.941Z,21.47
2018-11-21T04:52:42.708Z,21.60
2018-11-21T04:55:30.509Z,22.70
2018-11-21T04:58:18.000Z,21.90
2018-11-21T05:01:05.542Z,22.43
2018-11-21T05:03:53.319Z,24.13
2018-11-21T05:06:41.116Z,23.40
2018-11-21T05:09:28.887Z,24.03
2018-11-21T05:12:16.666Z,22.57
2018-11-21T05:15:04.568Z,21.73
2018-11-21T05:17:52.364Z,24.93
2018-11-21T05:20:40.130Z,22.30
2018-11-21T05:23:27.963Z,23.57
2018-11-21T05:26:15.716Z,24.70
2018-11-21T05:29:03.549Z,23.03
2018-11-21T05:31:51.334Z,25.47
2018-11-21T05:34:39.480Z,22.60
2018-11-21T05:37:27.277Z,24.23
2018-11-21T05:40:15.097Z,23.07
2018-11-21T05:43:02.897Z,24.13
2018-11-21T05:45:50.679Z,23.30
2018-11-21T05:48:38.467Z,23.10
2018-11-21T05:51:26.259Z,25.07
2018-11-21T05:54:14.068Z,25.17
2018-11-21T05:57:01.871Z,24.00
2018-11-21T05:59:49.648Z,25.00
2018-11-21T06:02:37.547Z,25.03
2018-11-21T06:05:25.375Z,24.23
2018-11-21T06:08:13.141Z,24.73
2018-11-21T06:11:00.976Z,23.33
2018-11-21T06:13:48.773Z,23.47
2018-11-21T06:16:36.738Z,22.57
2018-11-21T06:19:24.529Z,25.10
2018-11-21T06:22:12.310Z,24.30
2018-11-21T06:25:00.112Z,23.60
2018-11-21T06:27:47.879Z,22.77
2018-11-21T06:30:35.689Z,24.47
2018-11-21T06:33:23.476Z,25.10
2018-11-21T06:36:11.310Z,25.03
2018-11-21T06:38:59.077Z,23.80
2018-11-21T06:41:46.953Z,25.27
2018-11-21T06:44:34.738Z,24.70
2018-11-21T06:47:22.541Z,25.83
2018-11-21T06:50:10.318Z,23.60
2018-11-21T06:52:58.356Z,24.83
2018-11-21T06:55:46.140Z,25.37
2018-11-21T06:58:33.943Z,24.87
2018-11-21T07:01:21.741Z,25.00
2018-11-21T07:04:09.522Z,24.77
2018-11-21T07:06:57.301Z,25.30
2018-11-21T07:09:45.106Z,25.33
2018-11-21T07:12:32.881Z,24.83
2018-11-21T07:15:20.657Z,24.03
2018-11-21T07:18:08.462Z,23.87
2018-11-21T07:20:56.285Z,24.17
2018-11-21T07:23:44.063Z,24.17
2018-11-21T07:26:31.894Z,24.33
2018-11-21T07:29:19.670Z,24.10
2018-11-21T07:32:07.486Z,23.33
2018-11-21T07:34:55.440Z,24.10
2018-11-21T07:37:43.240Z,23.57
2018-11-21T07:40:31.042Z,22.77
2018-11-21T07:43:18.842Z,22.73
2018-11-21T07:46:06.688Z,23.13
2018-11-21T07:48:54.522Z,22.97
2018-11-21T07:51:42.268Z,22.63
2018-11-21T07:54:30.088Z,22.87
2018-11-21T07:57:38.656Z,23.90
2018-11-21T08:00:47.571Z,24.10
2018-11-21T08:03:54.482Z,21.57
2018-11-21T08:06:48.269Z,21.77
2018-11-21T08:09:55.197Z,22.93
2018-11-21T08:13:02.076Z,23.30
2018-11-21T08:16:09.018Z,22.57
2018-11-21T08:19:15.529Z,21.90
2018-11-21T08:22:22.449Z,23.20
2018-11-21T08:25:29.376Z,22.60
2018-11-21T08:28:36.305Z,22.63
2018-11-21T08:31:24.088Z,23.50
2018-11-21T08:34:11.845Z,23.53
2018-11-21T08:36:59.708Z,23.50
2018-11-21T08:39:47.489Z,20.67
2018-11-21T08:42:35.323Z,22.77
2018-11-21T08:45:23.086Z,21.73
2018-11-21T08:48:11.164Z,22.83
2018-11-21T08:50:58.917Z,21.13
2018-11-21T08:53:46.709Z,22.70
2018-11-21T08:56:34.497Z,21.70
2018-11-21T08:59:22.295Z,23.17
2018-11-21T09:02:10.088Z,21.77
2018-11-21T09:04:57.893Z,22.17
2018-11-21T09:07:45.657Z,20.43
2018-11-21T09:13:20.457Z,21.90
2018-11-21T09:16:08.273Z,21.90
2018-11-21T09:18:56.047Z,22.23
2018-11-21T09:21:43.868Z,22.67
2018-11-21T09:24:32.081Z,23.87
2018-11-21T09:27:19.895Z,22.50
2018-11-21T09:30:08.997Z,23.50
2018-11-21T09:32:57.520Z,22.10
2018-11-21T09:35:45.354Z,23.37
2018-11-21T09:38:33.165Z,22.57
2018-11-21T09:41:20.940Z,22.80
2018-11-21T09:44:08.811Z,21.83
2018-11-21T09:46:56.541Z,22.40
2018-11-21T09:49:44.338Z,22.77
2018-11-21T09:52:32.097Z,22.90
2018-11-21T09:55:19.913Z,22.40
2018-11-21T09:58:07.762Z,24.00
2018-11-21T10:01:14.886Z,22.60
2018-11-21T10:04:02.689Z,22.23
2018-11-21T10:06:50.555Z,22.63
2018-11-21T10:09:41.359Z,21.50
2018-11-21T10:12:29.155Z,22.63
2018-11-21T10:15:16.938Z,24.03
2018-11-21T10:18:05.037Z,21.93
2018-11-21T10:20:52.985Z,22.80
2018-11-21T10:23:40.816Z,25.23
2018-11-21T10:26:28.589Z,23.33
2018-11-21T10:29:16.418Z,23.50
2018-11-21T10:32:04.195Z,23.07
2018-11-21T10:34:52.008Z,23.33
2018-11-21T10:37:39.772Z,22.77
2018-11-21T10:40:27.610Z,19.63
2018-11-21T10:43:15.375Z,24.07
2018-11-21T10:46:03.175Z,23.87
2018-11-21T10:48:50.961Z,22.47
2018-11-21T10:51:38.760Z,22.63
2018-11-21T10:54:26.547Z,22.07
2018-11-21T10:57:14.350Z,22.57
2018-11-21T11:00:02.144Z,23.77
2018-11-21T11:03:09.038Z,20.97
2018-11-21T11:06:15.973Z,21.67
2018-11-21T11:09:22.903Z,28.73
2018-11-21T11:12:17.162Z,23.77
2018-11-21T11:15:24.234Z,22.57
2018-11-21T11:18:31.129Z,22.70
2018-11-21T11:21:38.057Z,23.07
2018-11-21T11:24:44.979Z,22.03
2018-11-21T11:27:44.800Z,22.83
2018-11-21T11:30:51.775Z,21.63
2018-11-21T11:33:58.681Z,22.70
2018-11-21T11:37:05.582Z,21.43
2018-11-21T11:40:12.491Z,22.67
2018-11-21T11:43:11.448Z,22.67
2018-11-21T11:46:18.341Z,23.07
2018-11-21T11:49:25.260Z,24.50
2018-11-21T11:52:32.146Z,23.53
2018-11-21T11:55:39.108Z,23.87
2018-11-21T11:58:46.022Z,23.07
2018-11-21T12:01:52.926Z,23.20
2018-11-21T12:04:59.839Z,24.63
2018-11-21T12:08:00.734Z,23.63
2018-11-21T12:11:07.658Z,23.30
2018-11-21T12:14:14.544Z,22.80
2018-11-21T12:17:12.692Z,24.27
2018-11-21T12:20:19.577Z,24.40
2018-11-21T12:23:26.501Z,24.33
2018-11-21T12:26:33.421Z,25.67
2018-11-21T12:29:42.065Z,22.53
2018-11-21T12:32:47.223Z,25.40
2018-11-21T12:35:54.162Z,25.73
2018-11-21T12:39:01.088Z,23.07
2018-11-21T12:42:07.983Z,21.03
2018-11-21T12:45:14.945Z,23.73
2018-11-21T12:48:21.858Z,23.60
2018-11-21T12:51:28.737Z,24.40
2018-11-21T12:54:35.667Z,25.90
2018-11-21T12:57:34.358Z,24.07
2018-11-21T13:00:41.380Z,23.40
2018-11-21T13:03:48.328Z,23.87
2018-11-21T13:06:55.245Z,24.83
2018-11-21T13:10:02.184Z,22.60
2018-11-21T13:12:50.182Z,24.03
2018-11-21T13:15:57.110Z,24.17
2018-11-21T13:19:04.029Z,26.50
2018-11-21T13:22:10.957Z,25.53
2018-11-21T13:25:17.878Z,24.50
2018-11-21T13:28:24.815Z,26.67
2018-11-21T13:31:31.702Z,25.10
2018-11-21T13:34:38.637Z,25.67
2018-11-21T13:37:45.543Z,24.43
2018-11-21T13:40:52.494Z,24.17
2018-11-21T13:43:59.450Z,24.50
2018-11-21T13:47:06.435Z,25.37
2018-11-21T13:50:13.345Z,26.83
2018-11-21T13:53:20.297Z,24.83
2018-11-21T13:56:08.269Z,26.97
2018-11-21T13:58:56.163Z,27.03
2018-11-21T14:01:43.987Z,26.67
2018-11-21T14:04:31.783Z,27.20
2018-11-21T14:07:19.615Z,28.43
2018-11-21T14:10:08.316Z,25.00
2018-11-21T14:12:56.100Z,27.10
2018-11-21T14:15:43.871Z,26.90
2018-11-21T14:18:31.691Z,27.27
2018-11-21T14:21:19.458Z,27.47
2018-11-21T14:24:07.273Z,28.20
2018-11-21T14:26:58.138Z,27.30
2018-11-21T14:29:45.749Z,27.37
2018-11-21T14:32:33.531Z,27.70
2018-11-21T14:35:21.348Z,26.53
2018-11-21T14:38:09.162Z,29.27
2018-11-21T14:40:56.976Z,27.63
2018-11-21T14:43:44.707Z,26.47
2018-11-21T14:46:32.544Z,27.63
2018-11-21T14:49:20.356Z,27.63
2018-11-21T14:52:08.181Z,27.67
2018-11-21T14:54:55.967Z,26.93
2018-11-21T14:57:43.756Z,28.73
2018-11-21T15:00:31.571Z,26.83
2018-11-21T15:03:19.376Z,27.90
2018-11-21T15:06:07.154Z,26.60
2018-11-21T15:08:54.962Z,27.60
2018-11-21T15:11:43.030Z,29.60
2018-11-21T15:14:30.833Z,28.53
2018-11-21T15:17:19.120Z,27.97
2018-11-21T15:20:08.428Z,21.60
2018-11-21T15:22:56.196Z,29.33
2018-11-21T15:25:44.016Z,27.60
2018-11-21T15:28:31.997Z,30.67
2018-11-21T15:31:19.914Z,28.33
2018-11-21T15:34:07.717Z,29.73
2018-11-21T15:36:55.533Z,31.93
2018-11-21T15:39:43.320Z,28.17
2018-11-21T15:42:31.126Z,27.13
2018-11-21T15:45:20.325Z,30.10
2018-11-21T15:51:02.031Z,27.50
2018-11-21T15:53:49.868Z,26.77
2018-11-21T15:56:37.836Z,27.13
2018-11-21T15:59:25.632Z,27.57
2018-11-21T16:02:13.421Z,27.63
2018-11-21T16:05:01.208Z,28.73
2018-11-21T16:07:49.392Z,29.27
2018-11-21T16:10:38.930Z,28.97
2018-11-21T16:13:26.734Z,29.20
2018-11-21T16:16:14.497Z,28.13
2018-11-21T16:19:02.341Z,27.70
2018-11-21T16:21:50.261Z,25.00
2018-11-21T16:24:38.088Z,28.07
2018-11-21T16:27:25.898Z,28.10
2018-11-21T16:30:15.648Z,27.87
2018-11-21T16:33:03.411Z,27.43
2018-11-21T16:35:51.195Z,26.77
2018-11-21T16:38:38.979Z,26.50
2018-11-21T16:41:26.912Z,27.57
2018-11-21T16:47:21.697Z,27.20
2018-11-21T16:50:11.034Z,26.63
2018-11-21T16:52:58.869Z,27.93
2018-11-21T16:55:46.723Z,27.73
2018-11-21T16:58:34.514Z,28.67
2018-11-21T17:01:22.344Z,26.90
2018-11-21T17:04:10.132Z,26.77
2018-11-21T17:06:58.055Z,27.53
2018-11-21T17:09:46.096Z,28.43
2018-11-21T17:12:27.207Z,28.63
2018-11-21T17:15:08.383Z,25.10
2018-11-21T17:17:36.875Z,26.67
2018-11-21T17:20:06.882Z,27.90
2018-11-21T17:22:35.287Z,28.30
2018-11-21T17:25:03.906Z,30.73
2018-11-21T17:27:32.334Z,27.53
2018-11-21T17:30:00.828Z,31.87
2018-11-21T17:32:29.212Z,29.07
2018-11-21T17:34:57.682Z,26.63
2018-11-21T17:37:26.128Z,29.37
2018-11-21T17:39:54.574Z,27.50
2018-11-21T17:42:22.997Z,28.17
2018-11-21T17:44:51.418Z,28.73
2018-11-21T17:47:19.835Z,29.13
2018-11-21T17:49:48.243Z,28.10
2018-11-21T17:52:16.706Z,22.93
2018-11-21T17:54:45.126Z,27.33
2018-11-21T17:57:13.591Z,26.33
2018-11-21T17:59:41.996Z,28.43
2018-11-21T18:02:10.452Z,26.50
2018-11-21T18:04:38.872Z,27.80
2018-11-21T18:07:07.327Z,26.67
2018-11-21T18:09:35.778Z,28.50
2018-11-21T18:12:04.179Z,28.93
2018-11-21T18:14:32.608Z,27.47
2018-11-21T18:17:01.038Z,29.07
2018-11-21T18:19:29.421Z,26.30
2018-11-21T18:21:57.834Z,27.93
2018-11-21T18:24:26.284Z,26.10
2018-11-21T18:26:54.823Z,27.53
2018-11-21T18:29:23.276Z,28.53
2018-11-21T18:31:51.682Z,27.77
2018-11-21T18:34:20.171Z,26.43
2018-11-21T18:36:48.687Z,28.73
2018-11-21T18:39:17.162Z,27.63
2018-11-21T18:41:45.597Z,28.20
2018-11-21T18:44:14.090Z,28.37
2018-11-21T18:46:42.517Z,28.53
2018-11-21T18:49:11.019Z,26.47
2018-11-21T18:51:39.462Z,28.90
2018-11-21T18:54:07.899Z,29.10
2018-11-21T18:57:04.576Z,28.60
2018-11-21T18:59:52.632Z,26.73
2018-11-21T19:02:21.091Z,27.80
2018-11-21T19:04:49.533Z,28.13
2018-11-21T19:07:18.084Z,30.17
2018-11-21T19:09:46.561Z,30.67
2018-11-21T19:12:15.035Z,29.40
2018-11-21T19:14:43.471Z,28.33
2018-11-21T19:17:11.933Z,28.20
2018-11-21T19:19:40.356Z,29.03
2018-11-21T19:22:08.789Z,26.80
2018-11-21T19:24:37.259Z,29.07
2018-11-21T19:27:06.100Z,31.33
2018-11-21T19:29:34.565Z,29.57
2018-11-21T19:32:03.105Z,28.57
2018-11-21T19:34:31.600Z,29.17
2018-11-21T19:37:00.046Z,28.60
2018-11-21T19:39:28.457Z,27.43
2018-11-21T19:41:57.005Z,29.00
2018-11-21T19:44:25.492Z,28.03
2018-11-21T19:46:53.921Z,27.77
2018-11-21T19:49:22.439Z,29.00
2018-11-21T19:51:51.125Z,27.77
2018-11-21T19:54:19.615Z,26.73
2018-11-21T19:56:48.120Z,29.33
2018-11-21T19:59:16.565Z,28.70
2018-11-21T20:01:45.140Z,28.20
2018-11-21T20:04:13.546Z,27.20
2018-11-21T20:06:41.975Z,27.27
2018-11-21T20:09:11.570Z,25.63
2018-11-21T20:11:40.089Z,26.73
2018-11-21T20:14:08.640Z,26.97
2018-11-21T20:16:37.075Z,27.33
2018-11-21T20:19:05.973Z,27.00
2018-11-21T20:21:34.483Z,27.17
2018-11-21T20:24:02.921Z,26.70
2018-11-21T20:26:31.397Z,26.87
2018-11-21T20:29:00.297Z,28.03
2018-11-21T20:31:28.754Z,26.93
2018-11-21T20:33:57.235Z,28.40
2018-11-21T20:36:25.714Z,28.00
2018-11-21T20:38:54.129Z,27.33
2018-11-21T20:41:22.603Z,27.13
2018-11-21T20:43:50.992Z,26.57
2018-11-21T20:46:19.489Z,26.03
2018-11-21T20:48:47.864Z,26.50
2018-11-21T20:51:16.283Z,27.77
2018-11-21T20:53:44.810Z,27.40
2018-11-21T20:56:13.283Z,26.90
2018-11-21T20:58:41.715Z,27.87
2018-11-21T21:01:10.172Z,26.47
2018-11-21T21:03:38.677Z,28.87
2018-11-21T21:06:07.048Z,27.23
2018-11-21T21:08:35.563Z,27.40
2018-11-21T21:11:04.017Z,27.03
2018-11-21T21:13:32.421Z,27.27
2018-11-21T21:16:00.823Z,28.10
2018-11-21T21:18:29.248Z,27.40
2018-11-21T21:20:57.694Z,27.97
2018-11-21T21:23:26.165Z,26.30
2018-11-21T21:25:54.566Z,26.17
2018-11-21T21:28:23.059Z,25.67
2018-11-21T21:30:51.546Z,27.20
2018-11-21T21:33:20.064Z,31.07
2018-11-21T21:35:48.487Z,27.40
2018-11-21T21:38:16.862Z,28.03
2018-11-21T21:40:45.283Z,29.37
2018-11-21T21:43:13.674Z,26.63
2018-11-21T21:45:42.116Z,28.10
2018-11-21T21:48:10.560Z,26.20
2018-11-21T21:50:39.158Z,27.57
2018-11-21T21:53:07.637Z,28.17
2018-11-21T21:55:36.200Z,26.60
2018-11-21T21:58:04.620Z,29.20
2018-11-21T22:00:32.999Z,26.70
2018-11-21T22:03:02.005Z,29.60
2018-11-21T22:05:30.776Z,28.63
2018-11-21T22:07:59.207Z,27.77
2018-11-21T22:10:27.622Z,28.00
2018-11-21T22:12:56.017Z,28.80
2018-11-21T22:15:25.734Z,29.50
2018-11-21T22:17:54.990Z,27.13
2018-11-21T22:20:23.692Z,28.73
2018-11-21T22:22:52.437Z,29.13
2018-11-21T22:25:21.410Z,29.10
2018-11-21T22:27:49.802Z,28.93
2018-11-21T22:30:18.263Z,28.03
2018-11-21T22:32:47.731Z,29.70
2018-11-21T22:35:17.061Z,27.50
2018-11-21T22:37:51.169Z,29.27
2018-11-21T22:40:15.158Z,28.63
2018-11-21T22:42:44.319Z,29.33
2018-11-21T22:45:14.712Z,31.05
2018-11-21T22:47:43.408Z,31.23
2018-11-21T22:50:13.846Z,29.73
2018-11-21T22:52:42.257Z,30.33
2018-11-21T22:55:11.523Z,30.70
2018-11-21T22:57:40.134Z,31.50
2018-11-21T23:00:13.020Z,29.83
2018-11-21T23:02:41.556Z,31.23
2018-11-21T23:05:10.331Z,31.27
2018-11-21T23:07:39.844Z,31.93
2018-11-21T23:10:09.286Z,32.30
2018-11-21T23:12:38.210Z,30.70
2018-11-21T23:15:07.245Z,30.93
2018-11-21T23:17:35.718Z,33.40
2018-11-21T23:20:04.966Z,33.17
2018-11-21T23:22:33.394Z,31.33
2018-11-21T23:25:01.829Z,30.13
2018-11-21T23:27:30.202Z,31.33
2018-11-21T23:29:58.599Z,31.17
2018-11-21T23:32:26.977Z,31.37
2018-11-21T23:34:55.457Z,32.53
2018-11-21T23:37:23.853Z,31.23
2018-11-21T23:39:52.249Z,30.90
2018-11-21T23:42:20.859Z,31.10
2018-11-21T23:44:49.280Z,31.47
2018-11-21T23:47:17.707Z,30.33
2018-11-21T23:49:46.109Z,30.80
2018-11-21T23:52:14.547Z,32.50
2018-11-21T23:54:42.925Z,32.23
2018-11-21T23:57:16.087Z,32.30
2018-11-21T23:59:39.763Z,31.10
